createdAt,value
2019-04-29T00:01:37.369Z,6.07
2019-04-29T00:04:07.184Z,6.06
2019-04-29T00:06:37.052Z,6.02
2019-04-29T00:09:14.100Z,5.93
2019-04-29T00:11:44.391Z,6.12
2019-04-29T00:14:14.396Z,6.04
2019-04-29T00:16:50.790Z,6.01
2019-04-29T00:19:26.058Z,5.94
2019-04-29T00:21:55.871Z,6.01
2019-04-29T00:24:25.597Z,5.99
2019-04-29T00:26:55.378Z,5.89
2019-04-29T00:29:25.821Z,5.82
2019-04-29T00:31:55.536Z,5.75
2019-04-29T00:34:25.225Z,5.80
2019-04-29T00:37:16.210Z,5.92
2019-04-29T00:40:03.550Z,5.83
2019-04-29T00:42:38.701Z,5.82
2019-04-29T00:45:08.808Z,5.84
2019-04-29T00:47:38.534Z,5.79
2019-04-29T00:50:08.275Z,5.75
2019-04-29T00:52:38.034Z,5.83
2019-04-29T00:55:15.511Z,5.95
2019-04-29T00:57:46.796Z,5.86
2019-04-29T01:00:19.669Z,5.73
2019-04-29T01:02:49.593Z,5.88
2019-04-29T01:05:19.685Z,5.94
2019-04-29T01:07:49.455Z,5.82
2019-04-29T01:10:20.432Z,5.78
2019-04-29T01:12:50.322Z,5.62
2019-04-29T01:15:22.233Z,5.73
2019-04-29T01:17:52.073Z,5.72
2019-04-29T01:20:21.814Z,5.55
2019-04-29T01:22:53.213Z,5.52
2019-04-29T01:25:23.080Z,5.52
2019-04-29T01:27:54.442Z,5.45
2019-04-29T01:30:39.584Z,5.41
2019-04-29T01:33:09.478Z,5.27
2019-04-29T01:35:41.055Z,5.36
2019-04-29T01:38:10.891Z,5.45
2019-04-29T01:40:59.674Z,5.47
2019-04-29T01:43:47.856Z,5.42
2019-04-29T01:46:17.664Z,5.43
2019-04-29T01:48:47.437Z,5.53
2019-04-29T01:51:17.290Z,5.51
2019-04-29T01:53:52.381Z,5.38
2019-04-29T01:56:22.204Z,5.38
2019-04-29T01:58:52.061Z,5.38
2019-04-29T02:01:22.003Z,5.34
2019-04-29T02:04:00.067Z,5.17
2019-04-29T02:06:30.114Z,5.26
2019-04-29T02:09:05.289Z,5.25
2019-04-29T02:11:35.063Z,5.26
2019-04-29T02:14:05.161Z,5.35
2019-04-29T02:16:34.897Z,5.32
2019-04-29T02:19:04.669Z,5.23
2019-04-29T02:21:34.507Z,5.41
2019-04-29T02:24:05.838Z,5.35
2019-04-29T02:26:35.632Z,5.16
2019-04-29T02:29:05.457Z,5.21
2019-04-29T02:31:36.754Z,5.20
2019-04-29T02:34:07.109Z,5.23
2019-04-29T02:36:37.472Z,5.20
2019-04-29T02:39:27.647Z,5.17
2019-04-29T02:42:02.172Z,5.14
2019-04-29T02:44:32.025Z,5.18
2019-04-29T02:47:01.848Z,5.12
2019-04-29T02:49:31.667Z,5.04
2019-04-29T02:52:01.433Z,5.05
2019-04-29T02:54:31.223Z,5.19
2019-04-29T02:57:17.879Z,5.08
2019-04-29T02:59:50.225Z,4.19
2019-04-29T03:02:21.535Z,4.93
2019-04-29T03:04:53.011Z,4.91
2019-04-29T03:07:22.862Z,4.85
2019-04-29T03:09:52.655Z,4.74
2019-04-29T03:12:22.522Z,4.77
2019-04-29T03:14:52.532Z,4.84
2019-04-29T03:17:22.431Z,4.88
2019-04-29T03:20:13.588Z,4.90
2019-04-29T03:22:47.462Z,4.80
2019-04-29T03:25:17.247Z,4.66
2019-04-29T03:27:48.740Z,4.71
2019-04-29T03:30:20.072Z,4.69
2019-04-29T03:32:54.043Z,4.61
2019-04-29T03:35:23.850Z,4.57
2019-04-29T03:37:53.636Z,4.63
2019-04-29T03:40:23.409Z,4.68
2019-04-29T03:42:53.226Z,4.70
2019-04-29T03:45:23.023Z,4.59
2019-04-29T03:47:52.815Z,4.64
2019-04-29T03:50:22.554Z,4.84
2019-04-29T03:52:54.010Z,4.78
2019-04-29T03:55:38.811Z,4.69
2019-04-29T03:57:59.366Z,4.62
2019-04-29T04:00:31.426Z,4.63
2019-04-29T04:03:08.915Z,4.59
2019-04-29T04:05:40.870Z,4.62
2019-04-29T04:08:18.038Z,4.65
2019-04-29T04:10:47.831Z,4.61
2019-04-29T04:13:18.781Z,4.73
2019-04-29T04:15:48.676Z,4.76
2019-04-29T04:18:20.073Z,4.73
2019-04-29T04:20:49.811Z,4.85
2019-04-29T04:23:20.499Z,4.90
2019-04-29T04:25:50.346Z,4.96
2019-04-29T04:28:20.611Z,5.10
2019-04-29T04:30:56.289Z,5.50
2019-04-29T04:33:26.530Z,5.90
2019-04-29T04:35:56.331Z,6.21
2019-04-29T04:38:26.187Z,6.47
2019-04-29T04:41:03.494Z,6.79
2019-04-29T04:43:38.745Z,7.10
2019-04-29T04:46:10.145Z,7.48
2019-04-29T04:49:08.117Z,7.38
2019-04-29T04:51:47.404Z,7.15
2019-04-29T04:57:28.643Z,6.44
2019-04-29T05:00:00.105Z,6.29
2019-04-29T05:02:31.368Z,6.19
2019-04-29T05:05:02.776Z,5.98
2019-04-29T05:07:32.622Z,5.86
2019-04-29T05:10:05.155Z,5.88
2019-04-29T05:12:39.643Z,5.96
2019-04-29T05:15:10.487Z,5.91
2019-04-29T05:17:43.200Z,5.94
2019-04-29T05:20:14.183Z,5.97
2019-04-29T05:22:46.916Z,6.03
2019-04-29T05:25:19.565Z,6.13
2019-04-29T05:27:50.022Z,6.21
2019-04-29T05:30:19.724Z,6.25
2019-04-29T05:32:50.399Z,6.23
2019-04-29T05:35:24.824Z,6.13
2019-04-29T05:37:58.724Z,6.21
2019-04-29T05:40:42.270Z,6.25
2019-04-29T05:43:13.966Z,6.43
2019-04-29T05:45:54.417Z,6.60
2019-04-29T05:48:27.559Z,6.65
2019-04-29T05:51:07.822Z,6.73
2019-04-29T05:53:42.926Z,6.92
2019-04-29T05:56:12.616Z,7.14
2019-04-29T05:58:42.297Z,7.34
2019-04-29T06:01:17.224Z,7.53
2019-04-29T06:03:46.986Z,8.08
2019-04-29T06:06:16.821Z,8.24
2019-04-29T06:08:46.683Z,8.20
2019-04-29T06:11:16.688Z,8.53
2019-04-29T06:13:48.609Z,8.53
2019-04-29T06:16:20.856Z,8.76
2019-04-29T06:18:59.372Z,8.95
2019-04-29T06:21:23.752Z,8.96
2019-04-29T06:23:59.282Z,9.05
2019-04-29T06:26:30.576Z,9.22
2019-04-29T06:29:05.802Z,9.46
2019-04-29T06:31:36.810Z,9.56
2019-04-29T06:34:06.604Z,9.46
2019-04-29T06:36:39.490Z,9.40
2019-04-29T06:39:09.239Z,8.93
2019-04-29T06:41:44.623Z,9.12
2019-04-29T06:44:16.098Z,8.91
2019-04-29T06:46:42.893Z,9.03
2019-04-29T06:49:12.631Z,8.96
2019-04-29T06:51:42.392Z,9.05
2019-04-29T06:54:11.963Z,9.19
2019-04-29T06:56:43.361Z,9.31
2019-04-29T06:59:14.766Z,9.12
2019-04-29T07:01:47.349Z,9.20
2019-04-29T07:04:17.965Z,9.49
2019-04-29T07:06:57.207Z,9.70
2019-04-29T07:09:20.636Z,9.58
2019-04-29T07:11:51.577Z,9.77
2019-04-29T07:14:21.936Z,9.92
2019-04-29T07:16:51.847Z,9.83
2019-04-29T07:19:22.253Z,9.78
2019-04-29T07:21:56.566Z,9.63
2019-04-29T07:24:28.232Z,9.64
2019-04-29T07:27:02.816Z,9.68
2019-04-29T07:29:33.608Z,9.52
2019-04-29T07:32:04.816Z,9.36
2019-04-29T07:34:39.205Z,9.57
2019-04-29T07:37:06.460Z,9.60
2019-04-29T07:39:36.242Z,9.57
2019-04-29T07:42:05.999Z,9.64
2019-04-29T07:44:54.140Z,9.76
2019-04-29T07:47:29.063Z,9.62
2019-04-29T07:49:56.973Z,9.70
2019-04-29T07:52:26.800Z,9.83
2019-04-29T07:54:57.043Z,9.89
2019-04-29T07:57:26.746Z,9.89
2019-04-29T07:59:56.507Z,9.88
2019-04-29T08:02:26.218Z,9.76
2019-04-29T08:04:55.975Z,9.64
2019-04-29T08:07:26.188Z,9.51
2019-04-29T08:09:56.177Z,9.44
2019-04-29T08:12:26.721Z,9.68
2019-04-29T08:14:58.567Z,9.63
2019-04-29T08:17:28.562Z,9.49
2019-04-29T08:20:00.672Z,9.38
2019-04-29T08:22:30.856Z,9.47
2019-04-29T08:25:00.757Z,9.57
2019-04-29T08:27:39.504Z,9.24
2019-04-29T08:30:02.243Z,9.15
2019-04-29T08:32:36.420Z,8.96
2019-04-29T08:35:03.976Z,9.00
2019-04-29T08:37:33.734Z,8.98
2019-04-29T08:40:16.001Z,8.91
2019-04-29T08:42:41.431Z,8.89
2019-04-29T08:45:11.375Z,9.05
2019-04-29T08:47:42.933Z,9.17
2019-04-29T08:50:14.970Z,9.03
2019-04-29T08:52:47.192Z,9.02
2019-04-29T08:55:19.381Z,9.15
2019-04-29T08:57:51.917Z,9.30
2019-04-29T09:00:27.712Z,9.21
2019-04-29T09:02:57.523Z,9.21
2019-04-29T09:05:28.459Z,9.17
2019-04-29T09:08:01.404Z,9.06
2019-04-29T09:10:32.972Z,8.99
2019-04-29T09:13:05.498Z,8.97
2019-04-29T09:15:38.794Z,9.07
2019-04-29T09:18:11.136Z,8.68
2019-04-29T09:20:40.005Z,9.07
2019-04-29T09:23:14.037Z,9.11
2019-04-29T09:25:45.396Z,9.10
2019-04-29T09:28:22.469Z,9.13
2019-04-29T09:30:49.816Z,9.20
2019-04-29T09:33:22.204Z,9.25
2019-04-29T09:35:51.946Z,9.25
2019-04-29T09:38:23.625Z,9.13
2019-04-29T09:41:04.548Z,9.21
2019-04-29T09:43:41.040Z,9.06
2019-04-29T09:46:12.619Z,9.18
2019-04-29T09:48:42.431Z,9.37
2019-04-29T09:51:17.508Z,9.35
2019-04-29T09:53:43.630Z,9.35
2019-04-29T09:56:13.879Z,9.37
2019-04-29T09:58:43.671Z,9.24
2019-04-29T10:01:20.309Z,9.12
2019-04-29T10:04:00.052Z,9.34
2019-04-29T10:06:39.901Z,9.22
2019-04-29T10:09:10.121Z,9.25
2019-04-29T10:11:40.915Z,9.24
2019-04-29T10:14:10.755Z,9.21
2019-04-29T10:16:51.174Z,9.25
2019-04-29T10:19:25.982Z,9.17
2019-04-29T10:21:56.050Z,9.25
2019-04-29T10:24:28.908Z,9.17
2019-04-29T10:26:58.636Z,9.08
2019-04-29T10:29:30.388Z,9.29
2019-04-29T10:32:02.442Z,9.47
2019-04-29T10:34:33.894Z,9.44
2019-04-29T10:37:05.245Z,9.40
2019-04-29T10:39:42.240Z,9.24
2019-04-29T10:42:14.373Z,9.20
2019-04-29T10:44:48.357Z,9.16
2019-04-29T10:47:36.160Z,9.17
2019-04-29T10:50:14.967Z,9.24
2019-04-29T10:52:43.498Z,9.24
2019-04-29T10:55:14.045Z,9.25
2019-04-29T10:57:44.804Z,9.23
2019-04-29T11:00:35.804Z,9.10
2019-04-29T11:03:05.690Z,8.99
2019-04-29T11:05:36.990Z,9.06
2019-04-29T11:08:08.341Z,9.11
2019-04-29T11:10:39.461Z,9.24
2019-04-29T11:13:09.146Z,9.28
2019-04-29T11:15:39.001Z,9.35
2019-04-29T11:18:08.868Z,9.28
2019-04-29T11:20:38.535Z,9.29
2019-04-29T11:23:16.408Z,9.48
2019-04-29T11:26:02.091Z,9.31
2019-04-29T11:28:34.165Z,9.38
2019-04-29T11:31:04.140Z,9.58
2019-04-29T11:33:40.103Z,9.52
2019-04-29T11:36:12.303Z,9.34
2019-04-29T11:38:44.487Z,9.46
2019-04-29T11:41:19.727Z,9.51
2019-04-29T11:43:50.974Z,9.60
2019-04-29T11:46:22.891Z,9.57
2019-04-29T11:48:54.732Z,9.74
2019-04-29T11:51:26.050Z,9.58
2019-04-29T11:53:55.763Z,9.53
2019-04-29T11:56:27.903Z,9.54
2019-04-29T11:59:01.766Z,9.51
2019-04-29T12:01:51.828Z,9.50
2019-04-29T12:04:34.750Z,9.50
2019-04-29T12:07:04.527Z,9.51
2019-04-29T12:09:36.107Z,9.51
2019-04-29T12:12:07.948Z,9.45
2019-04-29T12:14:46.224Z,9.65
2019-04-29T12:17:23.480Z,9.46
2019-04-29T12:19:55.835Z,9.38
2019-04-29T12:22:30.863Z,9.47
2019-04-29T12:25:03.453Z,9.52
2019-04-29T12:27:33.363Z,9.48
2019-04-29T12:30:05.532Z,9.57
2019-04-29T12:32:37.023Z,9.38
2019-04-29T12:35:08.767Z,9.34
2019-04-29T12:37:39.946Z,9.51
2019-04-29T12:40:20.468Z,9.50
2019-04-29T12:42:55.404Z,9.79
2019-04-29T12:45:29.851Z,9.77
2019-04-29T12:47:59.634Z,9.80
2019-04-29T12:50:29.391Z,9.73
2019-04-29T12:52:59.209Z,9.66
2019-04-29T12:55:44.073Z,9.74
2019-04-29T12:58:05.264Z,9.67
2019-04-29T13:00:47.336Z,9.56
2019-04-29T13:03:17.130Z,9.52
2019-04-29T13:06:09.685Z,9.48
2019-04-29T13:08:46.397Z,9.40
2019-04-29T13:11:19.236Z,9.52
2019-04-29T13:13:51.373Z,9.56
2019-04-29T13:16:31.503Z,9.52
2019-04-29T13:19:17.083Z,9.57
2019-04-29T13:21:43.682Z,9.64
2019-04-29T13:24:22.938Z,9.66
2019-04-29T13:26:44.912Z,9.65
2019-04-29T13:29:26.349Z,9.48
2019-04-29T13:31:47.102Z,9.54
2019-04-29T13:34:24.102Z,9.55
2019-04-29T13:37:06.828Z,9.79
2019-04-29T13:39:38.451Z,9.67
2019-04-29T13:41:57.998Z,9.77
2019-04-29T13:44:28.949Z,9.85
2019-04-29T13:47:06.392Z,10.00
2019-04-29T13:49:40.728Z,9.83
2019-04-29T13:52:12.917Z,9.81
2019-04-29T13:54:44.315Z,9.71
2019-04-29T13:57:16.039Z,9.66
2019-04-29T13:59:50.657Z,9.66
2019-04-29T14:02:30.611Z,9.60
2019-04-29T14:05:02.563Z,9.68
2019-04-29T14:07:32.316Z,9.64
2019-04-29T14:10:02.037Z,9.60
2019-04-29T14:15:06.145Z,9.75
2019-04-29T14:17:37.522Z,9.78
2019-04-29T14:18:53.484Z,9.71
2019-04-29T14:20:10.832Z,9.84
2019-04-29T14:22:39.296Z,9.88
2019-04-29T14:25:08.996Z,9.92
2019-04-29T14:27:39.839Z,9.89
2019-04-29T14:30:14.700Z,9.89
2019-04-29T14:32:49.514Z,9.91
2019-04-29T14:35:29.901Z,9.83
2019-04-29T14:38:05.246Z,9.91
2019-04-29T14:40:38.914Z,9.92
2019-04-29T14:43:31.896Z,10.05
2019-04-29T14:46:17.067Z,10.04
2019-04-29T14:48:50.655Z,9.99
2019-04-29T14:51:21.143Z,9.83
2019-04-29T14:53:56.886Z,9.80
2019-04-29T14:56:32.789Z,9.83
2019-04-29T14:59:07.164Z,10.01
2019-04-29T15:01:36.499Z,10.29
2019-04-29T15:04:18.601Z,10.47
2019-04-29T15:06:46.158Z,10.36
2019-04-29T15:09:17.778Z,10.21
2019-04-29T15:12:02.095Z,10.12
2019-04-29T15:14:49.913Z,10.14
2019-04-29T15:17:40.324Z,10.12
2019-04-29T15:20:25.340Z,10.02
2019-04-29T15:22:59.915Z,10.08
2019-04-29T15:25:30.071Z,9.90
2019-04-29T15:27:59.802Z,9.83
2019-04-29T15:30:31.801Z,9.82
2019-04-29T15:33:04.859Z,9.84
2019-04-29T15:35:34.662Z,9.94
2019-04-29T15:38:05.537Z,9.93
2019-04-29T15:40:42.839Z,9.75
2019-04-29T15:43:12.264Z,9.73
2019-04-29T15:45:45.914Z,9.60
2019-04-29T15:48:17.673Z,9.61
2019-04-29T15:50:47.451Z,9.69
2019-04-29T15:53:17.255Z,9.74
2019-04-29T15:55:46.991Z,9.51
2019-04-29T15:58:17.169Z,9.44
2019-04-29T16:00:48.379Z,9.68
2019-04-29T16:03:19.554Z,9.60
2019-04-29T16:06:19.263Z,9.63
2019-04-29T16:08:30.247Z,9.69
2019-04-29T16:11:04.444Z,9.64
2019-04-29T16:13:34.763Z,9.53
2019-04-29T16:16:06.619Z,9.41
2019-04-29T16:18:36.755Z,9.32
2019-04-29T16:21:11.046Z,9.32
2019-04-29T16:23:42.238Z,9.31
2019-04-29T16:26:11.878Z,9.31
2019-04-29T16:28:43.209Z,9.35
2019-04-29T16:31:14.473Z,9.35
2019-04-29T16:33:47.610Z,9.40
2019-04-29T16:36:16.267Z,9.32
2019-04-29T16:38:46.383Z,9.11
2019-04-29T16:41:40.687Z,8.92
2019-04-29T16:44:34.898Z,8.89
2019-04-29T16:46:49.543Z,8.87
2019-04-29T16:49:22.453Z,8.74
2019-04-29T16:51:55.951Z,8.73
2019-04-29T16:56:57.810Z,8.85
2019-04-29T16:59:30.822Z,8.86
2019-04-29T17:02:01.328Z,8.90
2019-04-29T17:04:32.705Z,9.08
2019-04-29T17:07:12.129Z,9.13
2019-04-29T17:09:46.651Z,9.02
2019-04-29T17:12:20.125Z,8.84
2019-04-29T17:15:04.129Z,8.77
2019-04-29T17:17:28.921Z,8.86
2019-04-29T17:19:57.065Z,8.71
2019-04-29T17:22:27.805Z,8.73
2019-04-29T17:25:03.738Z,8.70
2019-04-29T17:27:45.272Z,8.53
2019-04-29T17:30:27.152Z,8.54
2019-04-29T17:32:59.948Z,8.53
2019-04-29T17:35:18.562Z,8.80
2019-04-29T17:35:36.574Z,8.45
2019-04-29T17:38:06.432Z,8.59
2019-04-29T17:40:36.874Z,8.64
2019-04-29T17:43:11.339Z,8.46
2019-04-29T17:45:52.926Z,8.48
2019-04-29T17:48:42.870Z,8.67
2019-04-29T17:51:13.150Z,8.96
2019-04-29T17:53:46.505Z,8.80
2019-04-29T17:56:18.516Z,8.60
2019-04-29T17:58:51.797Z,8.46
2019-04-29T18:01:31.935Z,8.35
2019-04-29T18:04:06.097Z,8.42
2019-04-29T18:06:40.494Z,8.44
2019-04-29T18:09:29.459Z,8.33
2019-04-29T18:12:04.943Z,8.17
2019-04-29T18:14:40.298Z,8.08
2019-04-29T18:17:11.989Z,8.06
2019-04-29T18:20:02.167Z,8.01
2019-04-29T18:23:00.697Z,7.99
2019-04-29T18:25:36.691Z,7.96
2019-04-29T18:28:11.210Z,7.93
2019-04-29T18:30:42.851Z,7.91
2019-04-29T18:33:15.044Z,7.93
2019-04-29T18:35:46.353Z,7.85
2019-04-29T18:38:16.912Z,7.82
2019-04-29T18:40:49.511Z,7.79
2019-04-29T18:43:23.075Z,7.79
2019-04-29T18:45:59.229Z,7.82
2019-04-29T18:48:30.020Z,7.82
2019-04-29T18:50:59.911Z,7.86
2019-04-29T18:53:35.483Z,7.85
2019-04-29T18:56:06.627Z,7.82
2019-04-29T18:58:37.002Z,7.82
2019-04-29T19:01:08.643Z,7.83
2019-04-29T19:03:58.415Z,7.82
2019-04-29T19:06:28.438Z,8.44
2019-04-29T19:09:01.681Z,8.74
2019-04-29T19:11:32.892Z,8.44
2019-04-29T19:14:05.202Z,8.21
2019-04-29T19:16:39.227Z,8.08
2019-04-29T19:19:07.895Z,7.89
2019-04-29T19:21:40.078Z,7.83
2019-04-29T19:24:10.470Z,7.76
2019-04-29T19:26:41.681Z,7.69
2019-04-29T19:29:13.442Z,7.62
2019-04-29T19:31:49.386Z,7.62
2019-04-29T19:34:18.853Z,7.57
2019-04-29T19:36:50.804Z,7.51
2019-04-29T19:39:21.701Z,7.50
2019-04-29T19:41:52.072Z,7.58
2019-04-29T19:44:26.493Z,7.66
2019-04-29T19:46:56.288Z,7.58
2019-04-29T19:49:25.792Z,7.72
2019-04-29T19:51:58.493Z,7.98
2019-04-29T19:54:29.377Z,8.11
2019-04-29T19:57:03.442Z,7.91
2019-04-29T19:59:32.665Z,7.79
2019-04-29T20:02:08.156Z,7.65
2019-04-29T20:04:37.657Z,7.63
2019-04-29T20:07:10.543Z,7.60
2019-04-29T20:09:41.872Z,7.59
2019-04-29T20:12:17.813Z,7.60
2019-04-29T20:14:48.643Z,7.67
2019-04-29T20:17:21.893Z,7.61
2019-04-29T20:19:58.684Z,7.54
2019-04-29T20:22:25.481Z,7.51
2019-04-29T20:25:00.376Z,7.62
2019-04-29T20:27:32.560Z,7.56
2019-04-29T20:30:02.982Z,7.48
2019-04-29T20:32:36.034Z,7.45
2019-04-29T20:35:09.132Z,7.41
2019-04-29T20:37:39.193Z,7.38
2019-04-29T20:40:10.773Z,7.34
2019-04-29T20:42:45.393Z,7.34
2019-04-29T20:45:15.202Z,7.42
2019-04-29T20:47:47.987Z,7.52
2019-04-29T20:50:20.589Z,7.45
2019-04-29T20:52:56.469Z,7.33
2019-04-29T20:55:23.632Z,7.37
2019-04-29T20:57:54.978Z,7.29
2019-04-29T21:00:28.153Z,7.25
2019-04-29T21:02:59.140Z,7.25
2019-04-29T21:05:45.240Z,7.24
2019-04-29T21:08:14.268Z,7.30
2019-04-29T21:10:37.852Z,7.28
2019-04-29T21:13:20.337Z,7.26
2019-04-29T21:15:59.554Z,7.26
2019-04-29T21:18:29.345Z,7.25
2019-04-29T21:21:04.489Z,7.27
2019-04-29T21:23:35.389Z,7.22
2019-04-29T21:26:08.443Z,7.19
2019-04-29T21:28:41.193Z,7.19
2019-04-29T21:31:11.755Z,7.20
2019-04-29T21:33:42.965Z,7.21
2019-04-29T21:36:32.256Z,7.24
2019-04-29T21:39:06.092Z,7.25
2019-04-29T21:41:36.821Z,7.28
2019-04-29T21:44:07.536Z,7.29
2019-04-29T21:46:37.462Z,7.29
2019-04-29T21:49:11.595Z,7.51
2019-04-29T21:51:48.425Z,7.31
2019-04-29T21:54:15.766Z,7.25
2019-04-29T21:56:48.162Z,7.23
2019-04-29T21:59:17.975Z,7.29
2019-04-29T22:01:48.469Z,7.16
2019-04-29T22:04:18.187Z,7.20
2019-04-29T22:06:47.886Z,7.22
2019-04-29T22:09:18.148Z,7.19
2019-04-29T22:11:49.178Z,7.23
2019-04-29T22:14:19.018Z,7.19
2019-04-29T22:16:53.638Z,7.32
2019-04-29T22:19:26.143Z,7.21
2019-04-29T22:21:57.863Z,7.14
2019-04-29T22:24:29.060Z,7.10
2019-04-29T22:27:04.202Z,7.12
2019-04-29T22:29:36.663Z,7.08
2019-04-29T22:32:09.286Z,6.98
2019-04-29T22:34:36.353Z,7.10
2019-04-29T22:37:06.140Z,7.26
2019-04-29T22:39:37.019Z,7.31
2019-04-29T22:42:09.465Z,7.23
2019-04-29T22:44:39.449Z,7.26
2019-04-29T22:47:09.111Z,7.40
2019-04-29T22:49:38.913Z,7.25
2019-04-29T22:52:10.991Z,7.16
2019-04-29T22:54:41.010Z,7.19
2019-04-29T22:57:10.969Z,7.17
2019-04-29T22:59:41.111Z,7.22
2019-04-29T23:02:10.773Z,7.32
2019-04-29T23:04:40.469Z,7.25
2019-04-29T23:07:12.781Z,7.14
2019-04-29T23:09:46.303Z,7.08
2019-04-29T23:12:18.427Z,7.28
2019-04-29T23:14:46.393Z,7.19
2019-04-29T23:17:16.140Z,7.14
2019-04-29T23:19:50.761Z,7.23
2019-04-29T23:22:26.293Z,7.18
2019-04-29T23:25:05.684Z,7.16
2019-04-29T23:27:36.194Z,7.17
2019-04-29T23:30:07.444Z,7.19
2019-04-29T23:32:39.424Z,7.22
2019-04-29T23:35:10.056Z,7.14
2019-04-29T23:37:39.903Z,7.16
2019-04-29T23:40:10.591Z,7.20
2019-04-29T23:42:43.646Z,7.09
2019-04-29T23:45:14.545Z,7.04
2019-04-29T23:47:46.831Z,7.29
2019-04-29T23:50:18.801Z,7.21
2019-04-29T23:52:51.799Z,7.13
2019-04-29T23:55:25.652Z,7.02
2019-04-29T23:58:04.346Z,6.98
